createdAt,value
2022-10-13T00:00:45.469Z,7.10
2022-10-13T00:01:47.958Z,7.70
2022-10-13T00:02:49.891Z,7.33
2022-10-13T00:03:51.905Z,6.67
2022-10-13T00:04:58.794Z,7.40
2022-10-13T00:06:05.069Z,7.00
2022-10-13T00:07:07.115Z,6.80
2022-10-13T00:08:09.986Z,5.70
2022-10-13T00:09:14.013Z,6.60
2022-10-13T00:10:16.316Z,6.50
2022-10-13T00:12:38.867Z,8.00
2022-10-13T00:13:43.012Z,7.60
2022-10-13T00:14:44.994Z,6.60
2022-10-13T00:15:47.212Z,9.10
2022-10-13T00:16:49.295Z,6.90
2022-10-13T00:17:51.909Z,6.40
2022-10-13T00:18:54.336Z,6.80
2022-10-13T00:19:56.972Z,7.80
2022-10-13T00:20:59.243Z,7.64
2022-10-13T00:22:01.245Z,5.80
2022-10-13T00:23:03.468Z,6.70
2022-10-13T00:24:06.006Z,6.70
2022-10-13T00:25:08.888Z,4.10
2022-10-13T00:26:13.441Z,7.50
2022-10-13T00:27:15.894Z,6.60
2022-10-13T00:28:18.988Z,6.82
2022-10-13T00:29:21.268Z,6.18
2022-10-13T00:30:23.407Z,5.80
2022-10-13T00:31:28.509Z,5.90
2022-10-13T00:32:30.665Z,6.20
2022-10-13T00:33:32.759Z,7.40
2022-10-13T00:34:36.747Z,6.30
2022-10-13T00:35:43.239Z,6.20
2022-10-13T00:36:46.339Z,6.40
2022-10-13T00:37:49.486Z,6.80
2022-10-13T00:38:51.904Z,6.30
2022-10-13T00:39:54.298Z,7.60
2022-10-13T00:40:57.678Z,7.27
2022-10-13T00:42:00.119Z,2.30
2022-10-13T00:43:02.686Z,7.00
2022-10-13T00:44:06.126Z,3.80
2022-10-13T00:45:23.787Z,6.30
2022-10-13T00:46:28.137Z,7.20
2022-10-13T00:47:42.688Z,6.50
2022-10-13T00:48:44.913Z,7.20
2022-10-13T00:49:49.068Z,5.60
2022-10-13T00:50:51.178Z,6.90
2022-10-13T00:51:54.042Z,6.64
2022-10-13T00:52:56.218Z,7.10
2022-10-13T00:53:58.830Z,6.80
2022-10-13T00:55:00.888Z,6.40
2022-10-13T00:56:03.751Z,5.90
2022-10-13T00:57:07.698Z,5.30
2022-10-13T00:58:10.911Z,5.90
2022-10-13T00:59:15.908Z,8.70
2022-10-13T01:00:19.285Z,7.40
2022-10-13T01:01:21.579Z,5.50
2022-10-13T01:02:23.882Z,6.70
2022-10-13T01:03:28.406Z,6.70
2022-10-13T01:04:33.489Z,7.80
2022-10-13T01:05:35.510Z,5.50
2022-10-13T01:06:37.582Z,8.10
2022-10-13T01:07:41.132Z,7.20
2022-10-13T01:08:43.306Z,6.10
2022-10-13T01:09:45.412Z,7.30
2022-10-13T01:11:11.057Z,6.20
2022-10-13T01:12:23.022Z,5.90
2022-10-13T01:13:34.897Z,6.80
2022-10-13T01:14:54.490Z,4.30
2022-10-13T01:16:20.353Z,6.70
2022-10-13T01:17:48.657Z,6.70
2022-10-13T01:19:17.116Z,5.30
2022-10-13T01:20:35.337Z,6.80
2022-10-13T01:23:33.576Z,5.00
2022-10-13T01:24:44.368Z,5.90
2022-10-13T01:26:13.214Z,6.90
2022-10-13T01:28:54.705Z,6.20
2022-10-13T01:30:06.949Z,7.00
2022-10-13T01:33:04.971Z,8.20
2022-10-13T01:34:17.367Z,7.30
2022-10-13T01:36:52.702Z,5.00
2022-10-13T01:41:06.600Z,6.90
2022-10-13T01:42:17.548Z,5.40
2022-10-13T01:43:22.992Z,7.60
2022-10-13T01:44:28.532Z,7.00
2022-10-13T01:46:48.885Z,7.60
2022-10-13T01:47:51.172Z,5.00
2022-10-13T01:48:54.043Z,6.00
2022-10-13T01:49:56.596Z,5.91
2022-10-13T01:50:58.899Z,5.64
2022-10-13T01:52:08.594Z,5.20
2022-10-13T01:53:10.974Z,5.60
2022-10-13T01:54:13.096Z,5.40
2022-10-13T01:55:15.945Z,4.91
2022-10-13T01:56:18.822Z,5.09
2022-10-13T01:58:49.490Z,6.70
2022-10-13T01:59:51.640Z,5.50
2022-10-13T02:02:31.692Z,4.40
2022-10-13T02:05:00.983Z,5.70
2022-10-13T02:07:27.723Z,6.10
2022-10-13T02:08:47.370Z,5.50
2022-10-13T02:09:59.347Z,6.00
2022-10-13T02:11:14.493Z,5.70
2022-10-13T02:12:20.859Z,5.00
2022-10-13T02:13:24.255Z,6.40
2022-10-13T02:14:29.277Z,5.90
2022-10-13T02:16:51.280Z,4.10
2022-10-13T02:17:53.370Z,5.10
2022-10-13T02:18:55.849Z,6.30
2022-10-13T02:19:58.235Z,6.00
2022-10-13T02:21:01.268Z,4.70
2022-10-13T02:22:03.671Z,6.70
2022-10-13T02:23:08.560Z,7.00
2022-10-13T02:24:10.646Z,6.00
2022-10-13T02:25:13.245Z,5.90
2022-10-13T02:26:16.286Z,5.10
2022-10-13T02:27:18.269Z,5.50
2022-10-13T02:28:21.000Z,5.00
2022-10-13T02:29:24.251Z,4.40
2022-10-13T02:30:29.789Z,4.60
2022-10-13T02:31:32.035Z,1.90
2022-10-13T02:32:35.123Z,5.00
2022-10-13T02:33:37.664Z,4.90
2022-10-13T02:34:40.591Z,4.70
2022-10-13T02:35:43.182Z,3.80
2022-10-13T02:36:45.437Z,3.45
2022-10-13T02:37:48.432Z,5.40
2022-10-13T02:38:50.426Z,6.10
2022-10-13T02:39:52.730Z,4.00
2022-10-13T02:40:55.118Z,5.20
2022-10-13T02:41:57.494Z,5.30
2022-10-13T02:42:59.495Z,6.20
2022-10-13T02:44:01.576Z,4.90
2022-10-13T02:45:06.673Z,5.70
2022-10-13T02:46:09.600Z,3.10
2022-10-13T02:47:12.438Z,4.60
2022-10-13T02:48:15.076Z,6.18
2022-10-13T02:49:17.485Z,5.00
2022-10-13T02:50:19.576Z,4.80
2022-10-13T02:51:23.725Z,5.20
2022-10-13T02:52:25.801Z,5.10
2022-10-13T02:53:27.790Z,4.90
2022-10-13T02:54:30.829Z,3.50
2022-10-13T02:55:33.837Z,5.00
2022-10-13T02:56:35.953Z,4.90
2022-10-13T02:57:37.956Z,4.20
2022-10-13T02:58:40.161Z,5.90
2022-10-13T02:59:42.346Z,1.70
2022-10-13T03:00:44.566Z,5.80
2022-10-13T03:01:47.791Z,4.90
2022-10-13T03:02:49.962Z,3.60
2022-10-13T03:03:52.071Z,4.80
2022-10-13T03:04:54.181Z,3.60
2022-10-13T03:05:56.204Z,4.10
2022-10-13T03:06:58.476Z,4.90
2022-10-13T03:08:00.584Z,3.60
2022-10-13T03:09:03.059Z,4.70
2022-10-13T03:10:05.982Z,4.00
2022-10-13T03:11:07.960Z,5.10
2022-10-13T03:12:10.044Z,4.10
2022-10-13T03:13:12.437Z,5.30
2022-10-13T03:14:14.571Z,5.20
2022-10-13T03:15:16.820Z,4.90
2022-10-13T03:16:18.892Z,4.00
2022-10-13T03:17:21.915Z,4.00
2022-10-13T03:18:25.067Z,3.20
2022-10-13T03:19:30.103Z,3.60
2022-10-13T03:20:32.449Z,3.00
2022-10-13T03:21:34.547Z,5.00
2022-10-13T03:23:57.007Z,5.90
2022-10-13T03:24:59.840Z,4.18
2022-10-13T03:26:01.934Z,5.40
2022-10-13T03:27:04.407Z,6.30
2022-10-13T03:28:07.231Z,4.80
2022-10-13T03:29:15.376Z,5.70
2022-10-13T03:30:17.868Z,6.50
2022-10-13T03:31:19.940Z,5.40
2022-10-13T03:32:22.388Z,7.40
2022-10-13T03:33:25.077Z,8.40
2022-10-13T03:34:29.316Z,5.80
2022-10-13T03:35:31.449Z,3.50
2022-10-13T03:36:33.545Z,5.70
2022-10-13T03:37:35.733Z,7.90
2022-10-13T03:38:38.326Z,9.90
2022-10-13T03:39:40.622Z,6.40
2022-10-13T03:40:43.769Z,6.40
2022-10-13T03:41:46.285Z,6.60
2022-10-13T03:42:48.482Z,6.60
2022-10-13T03:43:50.551Z,7.00
2022-10-13T03:44:56.324Z,7.50
2022-10-13T03:45:57.517Z,7.50
2022-10-13T03:46:59.793Z,9.00
2022-10-13T03:48:02.034Z,6.60
2022-10-13T03:49:04.454Z,6.00
2022-10-13T03:50:09.577Z,7.50
2022-10-13T03:51:14.052Z,6.00
2022-10-13T03:52:18.598Z,6.00
2022-10-13T03:53:21.043Z,6.70
2022-10-13T03:54:23.026Z,6.70
2022-10-13T03:55:27.085Z,7.10
2022-10-13T03:56:29.260Z,7.60
2022-10-13T03:57:32.682Z,7.18
2022-10-13T03:58:34.678Z,6.30
2022-10-13T03:59:39.265Z,9.40
2022-10-13T04:00:41.446Z,7.70
2022-10-13T04:01:43.581Z,8.60
2022-10-13T04:02:48.987Z,7.10
2022-10-13T04:03:55.038Z,8.80
2022-10-13T04:04:58.266Z,8.50
2022-10-13T04:06:01.203Z,7.10
2022-10-13T04:07:03.341Z,7.70
2022-10-13T04:08:05.322Z,9.70
2022-10-13T04:09:07.275Z,14.67
2022-10-13T04:10:11.624Z,19.00
2022-10-13T04:11:14.276Z,25.90
2022-10-13T04:12:20.855Z,28.90
2022-10-13T04:13:22.579Z,29.40
2022-10-13T04:14:26.559Z,37.80
2022-10-13T04:15:32.423Z,40.30
2022-10-13T04:16:34.609Z,42.20
2022-10-13T04:17:37.221Z,41.30
2022-10-13T04:18:44.325Z,40.10
2022-10-13T04:19:43.443Z,40.50
2022-10-13T04:20:45.545Z,44.40
2022-10-13T04:21:47.684Z,44.70
2022-10-13T04:22:49.606Z,40.22
2022-10-13T04:23:55.419Z,35.89
2022-10-13T04:24:57.456Z,42.80
2022-10-13T04:25:59.696Z,43.10
2022-10-13T04:27:01.780Z,34.60
2022-10-13T04:28:04.796Z,39.90
2022-10-13T04:29:08.461Z,37.40
2022-10-13T04:30:13.656Z,37.90
2022-10-13T04:31:16.098Z,39.70
2022-10-13T04:32:18.933Z,37.90
2022-10-13T04:33:21.780Z,38.18
2022-10-13T04:34:24.036Z,38.90
2022-10-13T04:35:25.996Z,36.70
2022-10-13T04:36:28.253Z,31.30
2022-10-13T04:37:30.345Z,36.70
2022-10-13T04:38:32.479Z,31.30
2022-10-13T04:39:35.658Z,33.70
2022-10-13T04:40:37.902Z,33.90
2022-10-13T04:41:40.041Z,31.90
2022-10-13T04:42:42.154Z,30.40
2022-10-13T04:44:58.297Z,25.70
2022-10-13T04:46:03.874Z,35.80
2022-10-13T04:47:07.342Z,32.40
2022-10-13T04:48:09.635Z,30.90
2022-10-13T04:49:12.240Z,30.50
2022-10-13T04:50:14.839Z,30.80
2022-10-13T04:51:19.800Z,30.40
2022-10-13T04:52:22.072Z,32.00
2022-10-13T04:53:25.363Z,25.50
2022-10-13T04:54:27.379Z,28.90
2022-10-13T04:55:29.679Z,28.00
2022-10-13T04:56:31.908Z,27.70
2022-10-13T04:57:38.126Z,9.70
2022-10-13T04:58:40.891Z,25.91
2022-10-13T04:59:43.781Z,25.91
2022-10-13T05:00:46.281Z,25.82
2022-10-13T05:01:48.420Z,22.00
2022-10-13T05:02:50.387Z,22.67
2022-10-13T05:03:53.576Z,22.90
2022-10-13T05:04:55.622Z,24.10
2022-10-13T05:05:58.935Z,30.50
2022-10-13T05:07:18.373Z,23.40
2022-10-13T05:08:05.649Z,28.00
2022-10-13T05:09:09.065Z,24.30
2022-10-13T05:10:13.193Z,25.70
2022-10-13T05:11:15.434Z,23.40
2022-10-13T05:12:18.713Z,26.40
2022-10-13T05:13:22.688Z,25.00
2022-10-13T05:14:25.297Z,21.00
2022-10-13T05:15:27.384Z,22.70
2022-10-13T05:16:30.715Z,20.90
2022-10-13T05:17:35.210Z,21.55
2022-10-13T05:18:37.196Z,21.70
2022-10-13T05:19:39.796Z,22.50
2022-10-13T05:20:41.871Z,21.40
2022-10-13T05:21:43.965Z,22.30
2022-10-13T05:22:45.959Z,24.50
2022-10-13T05:23:47.998Z,21.67
2022-10-13T05:24:50.079Z,19.70
2022-10-13T05:25:53.178Z,20.80
2022-10-13T05:26:57.236Z,19.70
2022-10-13T05:27:59.235Z,23.10
2022-10-13T05:29:01.580Z,21.50
2022-10-13T05:30:07.540Z,12.60
2022-10-13T05:31:17.453Z,16.70
2022-10-13T05:32:19.720Z,23.00
2022-10-13T05:33:23.039Z,22.00
2022-10-13T05:34:26.424Z,18.40
2022-10-13T05:35:28.599Z,17.00
2022-10-13T05:36:33.139Z,19.00
2022-10-13T05:37:35.244Z,19.50
2022-10-13T05:38:37.518Z,19.10
2022-10-13T05:39:39.534Z,16.10
2022-10-13T05:40:41.796Z,21.60
2022-10-13T05:41:44.579Z,17.60
2022-10-13T05:42:51.507Z,19.20
2022-10-13T05:45:11.322Z,17.40
2022-10-13T05:46:14.609Z,20.50
2022-10-13T05:47:17.162Z,17.60
2022-10-13T05:48:21.486Z,18.10
2022-10-13T05:49:24.117Z,16.60
2022-10-13T05:50:26.213Z,16.90
2022-10-13T05:51:39.695Z,16.00
2022-10-13T05:52:41.977Z,17.60
2022-10-13T05:55:00.086Z,18.00
2022-10-13T05:56:12.319Z,15.20
2022-10-13T05:57:18.219Z,13.90
2022-10-13T05:58:20.899Z,18.50
2022-10-13T05:59:26.971Z,15.10
2022-10-13T06:00:27.055Z,17.60
2022-10-13T06:01:33.166Z,15.90
2022-10-13T06:02:40.842Z,16.60
2022-10-13T06:03:43.999Z,17.30
2022-10-13T06:04:47.660Z,17.50
2022-10-13T06:05:50.705Z,15.10
2022-10-13T06:06:52.876Z,14.20
2022-10-13T06:07:54.877Z,16.00
2022-10-13T06:08:56.979Z,15.00
2022-10-13T06:09:59.394Z,16.89
2022-10-13T06:11:03.274Z,12.30
2022-10-13T06:12:07.134Z,14.50
2022-10-13T06:13:09.752Z,16.36
2022-10-13T06:14:11.835Z,15.70
2022-10-13T06:15:13.819Z,16.22
2022-10-13T06:16:15.912Z,14.80
2022-10-13T06:17:18.266Z,16.00
2022-10-13T06:18:20.350Z,13.20
2022-10-13T06:19:22.987Z,7.90
2022-10-13T06:20:25.097Z,14.40
2022-10-13T06:21:27.291Z,15.30
2022-10-13T06:22:30.369Z,14.70
2022-10-13T06:23:32.508Z,14.50
2022-10-13T06:24:34.666Z,13.80
2022-10-13T06:25:48.256Z,14.00
2022-10-13T06:26:51.398Z,14.20
2022-10-13T06:27:53.368Z,14.22
2022-10-13T06:28:59.511Z,9.40
2022-10-13T06:30:01.307Z,13.20
2022-10-13T06:31:05.511Z,15.30
2022-10-13T06:32:08.099Z,14.70
2022-10-13T06:33:10.511Z,13.50
2022-10-13T06:34:15.331Z,16.60
2022-10-13T06:35:20.359Z,13.90
2022-10-13T06:36:22.567Z,15.10
2022-10-13T06:37:27.455Z,13.50
2022-10-13T06:38:28.823Z,14.30
2022-10-13T06:39:31.927Z,13.20
2022-10-13T06:40:36.481Z,12.40
2022-10-13T06:41:38.535Z,11.40
2022-10-13T06:42:41.612Z,9.60
2022-10-13T06:43:45.390Z,13.60
2022-10-13T06:44:47.473Z,10.00
2022-10-13T06:45:53.794Z,13.20
2022-10-13T06:46:55.929Z,12.80
2022-10-13T06:47:59.971Z,15.20
2022-10-13T06:49:02.104Z,12.50
2022-10-13T06:50:06.652Z,12.45
2022-10-13T06:51:10.118Z,11.30
2022-10-13T06:52:12.287Z,14.30
2022-10-13T06:53:14.488Z,10.30
2022-10-13T06:54:16.977Z,10.10
2022-10-13T06:55:19.336Z,13.40
2022-10-13T06:56:22.335Z,13.10
2022-10-13T06:57:24.482Z,11.90
2022-10-13T06:58:27.794Z,11.20
2022-10-13T06:59:30.867Z,11.80
2022-10-13T07:00:33.108Z,10.70
2022-10-13T07:01:39.193Z,14.10
2022-10-13T07:02:41.190Z,12.20
2022-10-13T07:03:43.700Z,12.00
2022-10-13T07:04:47.263Z,11.20
2022-10-13T07:05:49.696Z,12.10
2022-10-13T07:06:52.054Z,13.00
2022-10-13T07:07:55.290Z,8.90
2022-10-13T07:08:57.461Z,13.40
2022-10-13T07:09:59.564Z,12.80
2022-10-13T07:11:15.289Z,14.40
2022-10-13T07:12:14.871Z,4.90
2022-10-13T07:13:18.059Z,12.40
2022-10-13T07:14:20.311Z,11.90
2022-10-13T07:15:24.650Z,10.60
2022-10-13T07:16:30.426Z,7.50
2022-10-13T07:17:33.646Z,11.82
2022-10-13T07:18:36.015Z,13.00
2022-10-13T07:19:38.120Z,12.00
2022-10-13T07:20:41.050Z,10.70
2022-10-13T07:21:44.512Z,10.90
2022-10-13T07:22:47.258Z,10.60
2022-10-13T07:23:49.280Z,11.50
2022-10-13T07:24:51.364Z,12.40
2022-10-13T07:25:54.962Z,11.00
2022-10-13T07:26:57.238Z,10.10
2022-10-13T07:27:59.696Z,9.90
2022-10-13T07:29:02.627Z,12.00
2022-10-13T07:30:08.535Z,13.80
2022-10-13T07:31:12.463Z,5.10
2022-10-13T07:32:14.519Z,12.50
2022-10-13T07:33:16.516Z,10.70
2022-10-13T07:34:18.501Z,10.20
2022-10-13T07:35:20.711Z,11.80
2022-10-13T07:36:22.909Z,7.60
2022-10-13T07:37:26.053Z,10.90
2022-10-13T07:38:28.051Z,8.10
2022-10-13T07:39:30.291Z,11.40
2022-10-13T07:40:35.966Z,11.40
2022-10-13T07:41:38.783Z,9.70
2022-10-13T07:42:40.769Z,11.80
2022-10-13T07:43:42.958Z,9.80
2022-10-13T07:44:45.054Z,10.80
2022-10-13T07:45:47.172Z,11.00
2022-10-13T07:46:51.590Z,14.40
2022-10-13T07:47:55.680Z,12.73
2022-10-13T07:48:59.248Z,9.70
2022-10-13T07:50:01.396Z,10.00
2022-10-13T07:52:18.401Z,11.80
2022-10-13T07:53:21.572Z,12.40
2022-10-13T07:54:26.602Z,12.80
2022-10-13T07:55:28.986Z,11.50
2022-10-13T07:56:32.982Z,12.70
2022-10-13T07:57:35.048Z,12.20
2022-10-13T07:58:37.722Z,13.10
2022-10-13T07:59:40.880Z,13.60
2022-10-13T08:00:46.658Z,15.20
2022-10-13T08:01:49.500Z,12.40
2022-10-13T08:02:52.579Z,14.70
2022-10-13T08:03:56.366Z,8.80
2022-10-13T08:04:58.809Z,14.40
2022-10-13T08:06:03.278Z,11.50
2022-10-13T08:07:05.876Z,12.40
2022-10-13T08:08:08.569Z,13.18
2022-10-13T08:09:10.540Z,12.90
2022-10-13T08:10:12.856Z,13.50
2022-10-13T08:11:16.676Z,13.20
2022-10-13T08:12:19.434Z,13.20
2022-10-13T08:13:22.141Z,14.00
2022-10-13T08:14:24.984Z,13.60
2022-10-13T08:15:27.181Z,15.70
2022-10-13T08:16:31.062Z,11.10
2022-10-13T08:17:33.213Z,15.64
2022-10-13T08:18:35.432Z,11.20
2022-10-13T08:19:39.381Z,11.80
2022-10-13T08:20:43.824Z,14.10
2022-10-13T08:22:01.800Z,5.10
2022-10-13T08:22:50.265Z,12.20
2022-10-13T08:23:52.338Z,10.50
2022-10-13T08:24:56.229Z,10.90
2022-10-13T08:25:58.989Z,13.60
2022-10-13T08:27:01.255Z,14.73
2022-10-13T08:28:04.022Z,13.30
2022-10-13T08:29:21.435Z,12.20
2022-10-13T08:30:12.659Z,17.90
2022-10-13T08:31:15.793Z,13.60
2022-10-13T08:32:19.027Z,17.10
2022-10-13T08:33:21.810Z,0.40
2022-10-13T08:34:24.346Z,13.90
2022-10-13T08:35:34.085Z,16.80
2022-10-13T08:36:33.268Z,17.00
2022-10-13T08:37:35.605Z,15.64
2022-10-13T08:38:38.310Z,15.80
2022-10-13T08:39:40.321Z,15.40
2022-10-13T08:40:47.705Z,20.40
2022-10-13T08:41:50.586Z,16.10
2022-10-13T08:42:55.568Z,14.27
2022-10-13T08:44:39.531Z,11.30
2022-10-13T08:45:35.811Z,16.00
2022-10-13T08:46:08.712Z,17.50
2022-10-13T08:48:48.841Z,14.40
2022-10-13T08:51:06.596Z,14.60
2022-10-13T08:52:20.098Z,18.70
2022-10-13T08:53:32.257Z,16.80
2022-10-13T08:54:35.336Z,17.50
2022-10-13T08:55:43.849Z,14.40
2022-10-13T08:56:47.455Z,15.70
2022-10-13T08:57:51.247Z,16.20
2022-10-13T08:58:58.518Z,16.50
2022-10-13T09:00:01.066Z,15.90
2022-10-13T09:01:13.336Z,15.50
2022-10-13T09:02:30.323Z,14.80
2022-10-13T09:03:48.821Z,19.00
2022-10-13T09:04:57.320Z,14.80
2022-10-13T09:06:09.713Z,15.30
2022-10-13T09:07:26.419Z,11.40
2022-10-13T09:08:38.543Z,15.90
2022-10-13T09:09:43.636Z,12.10
2022-10-13T09:10:54.340Z,16.10
2022-10-13T09:11:58.819Z,14.80
2022-10-13T09:13:06.424Z,15.40
2022-10-13T09:14:10.796Z,15.10
2022-10-13T09:15:13.388Z,17.90
2022-10-13T09:16:17.233Z,11.20
2022-10-13T09:17:23.598Z,15.60
2022-10-13T09:18:30.606Z,15.40
2022-10-13T09:19:34.076Z,16.70
2022-10-13T09:20:40.045Z,14.20
2022-10-13T09:21:43.698Z,15.20
2022-10-13T09:23:05.405Z,15.30
2022-10-13T09:24:10.391Z,13.40
2022-10-13T09:25:21.362Z,12.20
2022-10-13T09:26:26.788Z,15.40
2022-10-13T09:27:29.538Z,12.90
2022-10-13T09:28:32.657Z,14.00
2022-10-13T09:29:35.034Z,12.70
2022-10-13T09:30:42.319Z,14.50
2022-10-13T09:31:44.882Z,10.40
2022-10-13T09:32:49.206Z,13.60
2022-10-13T09:35:20.491Z,14.50
2022-10-13T09:36:23.129Z,17.70
2022-10-13T09:37:26.361Z,12.70
2022-10-13T09:38:28.859Z,6.60
2022-10-13T09:39:35.980Z,11.30
2022-10-13T09:41:45.939Z,12.10
2022-10-13T09:42:53.367Z,13.00
2022-10-13T09:44:01.228Z,12.20
2022-10-13T09:45:15.348Z,12.40
2022-10-13T09:46:24.414Z,12.30
2022-10-13T09:47:27.727Z,13.10
2022-10-13T09:48:37.911Z,13.10
2022-10-13T09:49:45.119Z,13.80
2022-10-13T09:50:50.461Z,13.20
2022-10-13T09:51:59.098Z,14.60
2022-10-13T09:53:39.276Z,14.50
2022-10-13T09:54:50.592Z,16.40
2022-10-13T09:57:44.545Z,12.60
2022-10-13T10:01:41.300Z,13.30
2022-10-13T10:03:03.358Z,15.80
2022-10-13T10:04:19.044Z,15.10
2022-10-13T10:05:43.667Z,12.30
2022-10-13T10:06:49.657Z,13.30
2022-10-13T10:07:52.250Z,12.30
2022-10-13T10:09:03.223Z,12.80
2022-10-13T10:10:08.338Z,9.80
2022-10-13T10:11:21.033Z,8.30
2022-10-13T10:12:27.956Z,11.30
2022-10-13T10:13:30.561Z,10.70
2022-10-13T10:14:34.617Z,12.30
2022-10-13T10:15:46.768Z,11.60
2022-10-13T10:16:53.682Z,13.40
2022-10-13T10:18:03.136Z,11.70
2022-10-13T10:19:21.639Z,11.00
2022-10-13T10:20:46.161Z,11.30
2022-10-13T10:23:21.791Z,12.80
2022-10-13T10:26:04.756Z,14.00
2022-10-13T10:27:27.452Z,10.70
2022-10-13T10:28:52.354Z,9.90
2022-10-13T10:31:34.252Z,6.70
2022-10-13T10:33:07.360Z,7.60
2022-10-13T10:34:31.304Z,8.40
2022-10-13T10:35:43.604Z,12.00
2022-10-13T10:36:55.956Z,9.00
2022-10-13T10:38:11.212Z,8.10
2022-10-13T10:40:57.293Z,6.50
2022-10-13T10:42:33.126Z,5.90
2022-10-13T10:45:04.310Z,12.40
2022-10-13T10:46:16.098Z,10.40
2022-10-13T10:47:30.412Z,10.80
2022-10-13T10:48:35.458Z,11.10
2022-10-13T10:49:38.001Z,12.00
2022-10-13T10:50:40.093Z,11.10
2022-10-13T10:51:42.628Z,12.89
2022-10-13T10:52:51.517Z,11.10
2022-10-13T10:54:03.354Z,12.80
2022-10-13T10:55:19.558Z,12.00
2022-10-13T10:58:10.452Z,7.40
2022-10-13T10:59:24.163Z,8.30
2022-10-13T11:01:37.608Z,12.10
2022-10-13T11:03:01.990Z,13.10
2022-10-13T11:04:25.152Z,12.70
2022-10-13T11:05:49.374Z,13.90
2022-10-13T11:06:51.679Z,13.50
2022-10-13T11:07:56.684Z,9.40
2022-10-13T11:08:59.278Z,11.60
2022-10-13T11:10:17.340Z,10.50
2022-10-13T11:11:29.259Z,12.10
2022-10-13T11:12:53.265Z,12.10
2022-10-13T11:14:00.157Z,10.50
2022-10-13T11:15:13.158Z,6.90
2022-10-13T11:16:33.252Z,9.40
2022-10-13T11:17:37.039Z,10.10
2022-10-13T11:18:57.515Z,10.60
2022-10-13T11:20:04.137Z,8.90
2022-10-13T11:21:06.696Z,9.20
2022-10-13T11:22:14.367Z,8.40
2022-10-13T11:23:20.530Z,4.60
2022-10-13T11:24:35.307Z,8.90
2022-10-13T11:25:44.819Z,7.80
2022-10-13T11:26:46.982Z,8.50
2022-10-13T11:27:49.236Z,3.10
2022-10-13T11:28:51.911Z,5.30
2022-10-13T11:29:59.764Z,6.55
2022-10-13T11:31:08.442Z,7.10
2022-10-13T11:32:30.228Z,4.60
2022-10-13T11:33:39.448Z,6.00
2022-10-13T11:34:41.495Z,6.30
2022-10-13T11:35:43.984Z,6.80
2022-10-13T11:36:51.104Z,6.20
2022-10-13T11:39:34.587Z,6.30
2022-10-13T11:40:59.232Z,4.60
2022-10-13T11:43:39.693Z,4.30
2022-10-13T11:44:50.303Z,4.80
2022-10-13T11:46:08.499Z,8.20
2022-10-13T11:47:48.495Z,5.40
2022-10-13T11:49:07.130Z,5.00
2022-10-13T11:50:28.462Z,6.40
2022-10-13T11:52:09.120Z,5.20
2022-10-13T11:53:20.611Z,7.40
2022-10-13T11:54:42.037Z,5.80
2022-10-13T11:55:53.587Z,6.30
2022-10-13T11:56:56.218Z,5.60
2022-10-13T11:58:18.328Z,6.20
2022-10-13T11:59:30.282Z,6.90
2022-10-13T12:00:32.962Z,7.30
2022-10-13T12:01:35.534Z,6.30
2022-10-13T12:02:37.659Z,5.50
2022-10-13T12:05:06.178Z,4.80
2022-10-13T12:06:24.282Z,5.80
2022-10-13T12:07:29.387Z,6.70
2022-10-13T12:08:35.887Z,7.20
2022-10-13T12:09:49.463Z,7.20
2022-10-13T12:10:54.842Z,5.00
2022-10-13T12:12:06.532Z,6.90
2022-10-13T12:13:17.503Z,6.80
2022-10-13T12:15:38.485Z,6.00
2022-10-13T12:16:44.713Z,7.40
2022-10-13T12:17:48.062Z,6.80
2022-10-13T12:18:50.446Z,8.50
2022-10-13T12:19:54.209Z,8.50
2022-10-13T12:20:57.980Z,9.40
2022-10-13T12:22:00.627Z,9.40
2022-10-13T12:23:03.247Z,7.20
2022-10-13T12:24:09.316Z,8.40
2022-10-13T12:26:28.708Z,7.00
2022-10-13T12:27:33.708Z,8.50
2022-10-13T12:28:53.907Z,8.30
2022-10-13T12:29:56.510Z,8.80
2022-10-13T12:30:59.653Z,9.10
2022-10-13T12:32:02.122Z,8.60
2022-10-13T12:33:07.976Z,8.70
2022-10-13T12:35:35.479Z,8.00
2022-10-13T12:36:38.118Z,7.00
2022-10-13T12:37:40.866Z,8.90
2022-10-13T12:38:46.608Z,10.00
2022-10-13T12:39:49.573Z,7.40
2022-10-13T12:40:52.367Z,8.27
2022-10-13T12:41:55.617Z,8.70
2022-10-13T12:42:58.193Z,11.91
2022-10-13T12:44:03.905Z,7.70
2022-10-13T12:45:06.948Z,10.90
2022-10-13T12:46:09.810Z,9.10
2022-10-13T12:48:48.160Z,21.50
2022-10-13T12:49:50.209Z,21.60
2022-10-13T12:50:53.476Z,21.80
2022-10-13T12:51:58.904Z,33.10
2022-10-13T12:53:10.342Z,34.80
2022-10-13T12:54:23.462Z,31.10
2022-10-13T12:55:25.544Z,40.30
2022-10-13T12:56:31.072Z,32.40
2022-10-13T12:57:34.982Z,30.00
2022-10-13T12:58:37.334Z,28.60
2022-10-13T12:59:39.342Z,27.30
2022-10-13T13:00:42.114Z,26.60
2022-10-13T13:01:45.250Z,23.40
2022-10-13T13:04:18.323Z,23.30
2022-10-13T13:05:39.438Z,22.40
2022-10-13T13:06:58.520Z,23.60
2022-10-13T13:08:08.276Z,23.60
2022-10-13T13:09:21.922Z,24.40
2022-10-13T13:10:24.809Z,21.10
2022-10-13T13:11:35.221Z,23.50
2022-10-13T13:12:41.653Z,20.30
2022-10-13T13:13:46.685Z,27.30
2022-10-13T13:14:50.996Z,24.10
2022-10-13T13:15:53.153Z,24.45
2022-10-13T13:17:06.214Z,21.80
2022-10-13T13:18:33.205Z,23.20
2022-10-13T13:19:38.326Z,23.50
2022-10-13T13:20:41.552Z,21.90
2022-10-13T13:21:43.634Z,23.10
2022-10-13T13:22:47.206Z,22.60
2022-10-13T13:23:53.711Z,22.90
2022-10-13T13:24:54.855Z,22.40
2022-10-13T13:26:06.776Z,22.18
2022-10-13T13:27:21.922Z,21.30
2022-10-13T13:29:39.170Z,20.40
2022-10-13T13:30:41.898Z,20.90
2022-10-13T13:31:43.881Z,19.40
2022-10-13T13:32:46.356Z,22.50
2022-10-13T13:33:48.696Z,20.70
2022-10-13T13:34:51.364Z,23.10
2022-10-13T13:35:53.463Z,20.10
2022-10-13T13:36:56.353Z,21.80
2022-10-13T13:37:59.650Z,15.36
2022-10-13T13:39:02.336Z,20.60
2022-10-13T13:40:06.953Z,19.60
2022-10-13T13:41:12.370Z,18.40
2022-10-13T13:42:14.588Z,21.30
2022-10-13T13:43:18.545Z,19.70
2022-10-13T13:44:21.793Z,18.36
2022-10-13T13:45:24.992Z,23.20
2022-10-13T13:46:29.137Z,20.30
2022-10-13T13:47:32.309Z,19.10
2022-10-13T13:48:35.460Z,18.20
2022-10-13T13:49:39.983Z,15.50
2022-10-13T13:50:42.353Z,15.09
2022-10-13T13:51:45.385Z,14.80
2022-10-13T13:52:47.942Z,17.60
2022-10-13T13:53:50.620Z,16.20
2022-10-13T13:54:53.362Z,12.30
2022-10-13T13:55:55.521Z,16.45
2022-10-13T13:56:59.169Z,16.30
2022-10-13T13:58:02.334Z,16.40
2022-10-13T13:59:04.312Z,16.00
2022-10-13T14:00:08.221Z,16.20
2022-10-13T14:01:12.632Z,17.00
2022-10-13T14:02:17.707Z,17.00
2022-10-13T14:03:20.167Z,14.90
2022-10-13T14:05:42.614Z,14.90
2022-10-13T14:06:46.940Z,16.20
2022-10-13T14:07:54.947Z,17.09
2022-10-13T14:09:02.296Z,8.10
2022-10-13T14:10:07.711Z,16.60
2022-10-13T14:11:11.986Z,22.70
2022-10-13T14:12:15.961Z,23.90
2022-10-13T14:13:18.509Z,28.80
2022-10-13T14:14:21.567Z,33.80
2022-10-13T14:15:28.850Z,38.10
2022-10-13T14:16:28.228Z,35.30
2022-10-13T14:17:30.624Z,43.10
2022-10-13T14:18:36.387Z,37.00
2022-10-13T14:19:41.647Z,40.40
2022-10-13T14:20:45.714Z,41.10
2022-10-13T14:21:48.389Z,29.70
2022-10-13T14:22:52.926Z,38.70
2022-10-13T14:23:55.827Z,34.10
2022-10-13T14:25:00.949Z,37.20
2022-10-13T14:26:07.223Z,34.60
2022-10-13T14:27:09.279Z,31.10
2022-10-13T14:28:15.899Z,30.70
2022-10-13T14:29:16.331Z,31.80
2022-10-13T14:30:19.714Z,33.40
2022-10-13T14:31:21.756Z,32.40
2022-10-13T14:32:24.207Z,29.90
2022-10-13T14:33:27.437Z,30.36
2022-10-13T14:34:29.818Z,29.10
2022-10-13T14:35:32.209Z,28.10
2022-10-13T14:36:34.530Z,27.80
2022-10-13T14:37:38.024Z,29.70
2022-10-13T14:38:40.509Z,27.70
2022-10-13T14:39:43.181Z,27.60
2022-10-13T14:40:45.695Z,25.36
2022-10-13T14:41:48.600Z,28.45
2022-10-13T14:42:51.465Z,23.80
2022-10-13T14:43:54.149Z,27.60
2022-10-13T14:44:57.252Z,25.00
2022-10-13T14:46:03.443Z,25.50
2022-10-13T14:47:05.736Z,26.50
2022-10-13T14:48:08.034Z,28.70
2022-10-13T14:49:10.859Z,26.50
2022-10-13T14:50:14.975Z,23.70
2022-10-13T14:51:17.081Z,21.00
2022-10-13T14:52:19.202Z,28.00
2022-10-13T14:53:21.468Z,24.00
2022-10-13T14:54:25.067Z,25.30
2022-10-13T14:55:31.169Z,23.10
2022-10-13T14:56:39.538Z,24.20
2022-10-13T14:57:41.885Z,21.60
2022-10-13T14:58:44.077Z,21.40
2022-10-13T14:59:46.255Z,20.90
2022-10-13T15:00:48.487Z,19.90
2022-10-13T15:01:51.133Z,20.80
2022-10-13T15:02:53.410Z,21.55
2022-10-13T15:03:55.779Z,19.50
2022-10-13T15:04:57.891Z,18.80
2022-10-13T15:06:00.201Z,20.70
2022-10-13T15:07:05.709Z,20.50
2022-10-13T15:08:09.638Z,18.70
2022-10-13T15:09:12.833Z,15.00
2022-10-13T15:10:16.370Z,19.60
2022-10-13T15:11:21.029Z,17.20